createdAt,value
2023-08-12T00:02:07.406Z,18.16
2023-08-12T00:07:10.778Z,18.22
2023-08-12T00:12:14.133Z,18.29
2023-08-12T00:17:18.961Z,18.35
2023-08-12T00:22:22.299Z,18.40
2023-08-12T00:27:26.118Z,18.51
2023-08-12T00:32:30.749Z,18.59
2023-08-12T00:37:33.875Z,18.71
2023-08-12T00:42:37.089Z,18.81
2023-08-12T00:47:42.382Z,18.97
2023-08-12T00:52:46.477Z,19.10
2023-08-12T00:57:49.814Z,19.17
2023-08-12T01:02:56.349Z,19.15
2023-08-12T01:07:59.647Z,19.09
2023-08-12T01:13:13.903Z,19.10
2023-08-12T01:18:19.770Z,19.13
2023-08-12T01:23:24.551Z,19.13
2023-08-12T01:28:28.226Z,19.17
2023-08-12T01:33:37.443Z,19.15
2023-08-12T01:38:43.294Z,19.12
2023-08-12T01:43:47.169Z,19.12
2023-08-12T01:48:50.391Z,19.13
2023-08-12T01:53:54.842Z,19.10
2023-08-12T01:58:57.943Z,19.10
2023-08-12T02:04:01.097Z,19.12
2023-08-12T02:09:06.170Z,19.12
2023-08-12T02:14:09.267Z,19.12
2023-08-12T02:19:12.392Z,19.07
2023-08-12T02:24:17.224Z,19.12
2023-08-12T02:29:20.311Z,19.12
2023-08-12T02:34:23.446Z,19.16
2023-08-12T02:39:27.888Z,19.19
2023-08-12T02:44:31.329Z,19.12
2023-08-12T02:49:34.770Z,19.03
2023-08-12T02:54:39.225Z,18.90
2023-08-12T02:59:42.705Z,18.83
2023-08-12T03:04:45.813Z,18.75
2023-08-12T03:09:51.432Z,18.64
2023-08-12T03:14:54.534Z,18.59
2023-08-12T03:20:00.711Z,18.62
2023-08-12T03:25:06.588Z,18.58
2023-08-12T03:30:11.116Z,18.64
2023-08-12T03:35:14.407Z,18.77
2023-08-12T03:40:19.294Z,18.85
2023-08-12T03:45:22.623Z,18.82
2023-08-12T03:50:26.091Z,18.78
2023-08-12T03:55:32.979Z,18.81
2023-08-12T04:00:36.207Z,18.80
2023-08-12T04:05:39.397Z,18.82
2023-08-12T04:10:46.835Z,18.83
2023-08-12T04:15:51.562Z,18.81
2023-08-12T04:20:55.487Z,18.81
2023-08-12T04:26:00.530Z,18.78
2023-08-12T04:31:08.739Z,18.77
2023-08-12T04:36:12.460Z,18.74
2023-08-12T04:41:16.915Z,18.75
2023-08-12T04:46:20.197Z,18.71
2023-08-12T04:51:23.396Z,18.72
2023-08-12T04:56:30.008Z,18.73
2023-08-12T05:01:33.173Z,18.71
2023-08-12T05:06:36.660Z,18.68
2023-08-12T05:11:41.373Z,18.63
2023-08-12T05:16:44.825Z,18.66
2023-08-12T05:21:48.328Z,18.68
2023-08-12T05:26:52.774Z,18.70
2023-08-12T05:31:56.188Z,18.83
2023-08-12T05:36:59.373Z,18.91
2023-08-12T05:42:04.102Z,18.93
2023-08-12T05:47:07.249Z,18.78
2023-08-12T05:52:11.183Z,18.88
2023-08-12T05:57:16.105Z,19.00
2023-08-12T06:02:19.659Z,19.28
2023-08-12T06:07:24.230Z,19.22
2023-08-12T06:12:28.759Z,19.31
2023-08-12T06:17:31.963Z,19.24
2023-08-12T06:22:35.114Z,19.20
2023-08-12T06:27:39.999Z,19.27
2023-08-12T06:32:43.270Z,19.48
2023-08-12T06:37:46.403Z,19.67
2023-08-12T06:42:51.354Z,20.13
2023-08-12T06:47:54.470Z,20.78
2023-08-12T06:52:57.661Z,21.24
2023-08-12T06:58:02.163Z,21.28
2023-08-12T07:03:05.950Z,21.51
2023-08-12T07:08:09.064Z,21.53
2023-08-12T07:13:13.520Z,21.39
2023-08-12T07:18:16.690Z,22.03
2023-08-12T07:23:19.826Z,21.80
2023-08-12T07:28:24.275Z,22.07
2023-08-12T07:33:27.389Z,23.10
2023-08-12T07:38:30.813Z,23.62
2023-08-12T07:43:35.330Z,23.87
2023-08-12T07:48:39.342Z,23.90
2023-08-12T07:53:42.644Z,24.03
2023-08-12T07:58:48.764Z,23.22
2023-08-12T08:03:51.893Z,22.68
2023-08-12T08:08:55.148Z,23.40
2023-08-12T08:14:00.331Z,23.27
2023-08-12T08:19:03.512Z,23.07
2023-08-12T08:24:07.192Z,22.96
2023-08-12T08:29:11.652Z,22.75
2023-08-12T08:34:14.810Z,22.46
2023-08-12T08:39:18.372Z,22.28
2023-08-12T08:44:24.669Z,22.09
2023-08-12T08:49:28.380Z,22.11
2023-08-12T08:54:31.710Z,22.53
2023-08-12T08:59:36.138Z,23.28
2023-08-12T09:04:40.429Z,23.38
2023-08-12T09:09:49.049Z,23.39
2023-08-12T09:14:53.578Z,23.15
2023-08-12T09:19:56.917Z,23.48
2023-08-12T09:25:00.558Z,24.37
2023-08-12T09:30:07.044Z,25.75
2023-08-12T09:35:18.128Z,25.54
2023-08-12T09:40:21.652Z,25.03
2023-08-12T09:45:27.374Z,24.41
2023-08-12T09:50:30.784Z,23.62
2023-08-12T09:55:37.457Z,23.61
2023-08-12T10:00:43.504Z,23.56
2023-08-12T10:05:47.068Z,23.95
2023-08-12T10:11:03.220Z,25.05
2023-08-12T10:16:15.219Z,27.29
2023-08-12T10:21:19.360Z,28.02
2023-08-12T10:26:23.842Z,27.31
2023-08-12T10:31:29.987Z,26.42
2023-08-12T10:36:37.403Z,26.02
2023-08-12T10:41:53.570Z,25.35
2023-08-12T10:47:00.410Z,24.50
2023-08-12T10:52:03.946Z,23.96
2023-08-12T10:57:12.775Z,23.53
2023-08-12T11:02:18.858Z,23.10
2023-08-12T11:07:24.143Z,22.59
2023-08-12T11:12:31.972Z,22.12
2023-08-12T11:17:37.631Z,21.73
2023-08-12T11:22:43.098Z,21.53
2023-08-12T11:27:47.440Z,21.35
2023-08-12T11:32:53.432Z,21.26
2023-08-12T11:37:58.741Z,21.32
2023-08-12T11:43:01.842Z,21.85
2023-08-12T11:48:07.104Z,23.11
2023-08-12T11:53:10.558Z,23.99
2023-08-12T11:58:19.707Z,24.60
2023-08-12T12:03:24.255Z,24.88
2023-08-12T12:08:27.734Z,24.48
2023-08-12T12:13:32.030Z,24.39
2023-08-12T12:18:37.962Z,23.81
2023-08-12T12:23:41.307Z,23.77
2023-08-12T12:28:44.423Z,23.61
2023-08-12T12:33:48.881Z,23.35
2023-08-12T12:38:52.364Z,22.92
2023-08-12T12:43:55.737Z,22.89
2023-08-12T12:49:00.245Z,22.83
2023-08-12T12:54:03.548Z,23.06
2023-08-12T12:59:06.691Z,23.57
2023-08-12T13:04:11.381Z,24.82
2023-08-12T13:09:14.504Z,25.88
2023-08-12T13:14:19.903Z,26.45
2023-08-12T13:19:24.707Z,26.68
2023-08-12T13:24:27.802Z,26.65
2023-08-12T13:29:32.928Z,26.95
2023-08-12T13:34:37.362Z,27.00
2023-08-12T13:39:40.508Z,27.23
2023-08-12T13:44:43.582Z,27.51
2023-08-12T13:49:48.003Z,27.44
2023-08-12T13:54:51.139Z,27.71
2023-08-12T13:59:54.249Z,26.98
2023-08-12T14:04:58.706Z,26.10
2023-08-12T14:10:01.989Z,25.50
2023-08-12T14:15:05.976Z,25.61
2023-08-12T14:20:11.860Z,26.47
2023-08-12T14:25:15.287Z,26.80
2023-08-12T14:30:20.258Z,26.89
2023-08-12T14:35:25.375Z,26.39
2023-08-12T14:40:29.112Z,26.02
2023-08-12T14:45:32.259Z,26.28
2023-08-12T14:50:39.041Z,26.29
2023-08-12T14:55:43.413Z,26.21
2023-08-12T15:00:48.336Z,26.18
2023-08-12T15:06:02.367Z,25.83
2023-08-12T15:11:05.654Z,25.97
2023-08-12T15:16:08.908Z,26.24
2023-08-12T15:21:13.398Z,26.43
2023-08-12T15:26:16.523Z,26.05
2023-08-12T15:31:19.634Z,25.41
2023-08-12T15:36:24.080Z,25.26
2023-08-12T15:41:27.187Z,25.06
2023-08-12T15:46:30.689Z,24.87
2023-08-12T15:51:35.689Z,24.82
2023-08-12T15:56:38.820Z,24.84
2023-08-12T16:01:41.968Z,24.85
2023-08-12T16:06:47.019Z,24.82
2023-08-12T16:11:50.484Z,24.80
2023-08-12T16:16:53.666Z,24.73
2023-08-12T16:21:58.490Z,24.76
2023-08-12T16:27:03.976Z,24.92
2023-08-12T16:32:08.245Z,25.04
2023-08-12T16:37:20.980Z,25.05
2023-08-12T16:42:25.001Z,25.14
2023-08-12T16:47:30.541Z,25.13
2023-08-12T16:52:36.721Z,25.02
2023-08-12T16:57:39.896Z,24.83
2023-08-12T17:02:43.088Z,24.71
2023-08-12T17:07:47.567Z,24.68
2023-08-12T17:12:50.798Z,24.86
2023-08-12T17:17:54.025Z,24.74
2023-08-12T17:22:58.507Z,24.70
2023-08-12T17:28:01.615Z,24.66
2023-08-12T17:33:05.130Z,24.60
2023-08-12T17:38:09.711Z,24.42
2023-08-12T17:43:12.853Z,24.11
2023-08-12T17:48:15.992Z,23.76
2023-08-12T17:53:20.600Z,23.58
2023-08-12T17:58:23.931Z,23.37
2023-08-12T18:03:27.355Z,23.13
2023-08-12T18:08:32.020Z,22.85
2023-08-12T18:13:35.134Z,22.68
2023-08-12T18:18:38.311Z,22.53
2023-08-12T18:23:43.047Z,22.32
2023-08-12T18:28:46.155Z,22.19
2023-08-12T18:33:49.513Z,22.09
2023-08-12T18:38:53.961Z,22.01
2023-08-12T18:43:57.072Z,21.85
2023-08-12T18:49:00.193Z,21.60
2023-08-12T18:54:05.597Z,21.44
2023-08-12T18:59:09.104Z,21.36
2023-08-12T19:04:13.204Z,21.28
2023-08-12T19:09:18.330Z,21.08
2023-08-12T19:14:21.993Z,20.84
2023-08-12T19:19:25.280Z,20.61
2023-08-12T19:24:29.722Z,20.37
2023-08-12T19:29:32.869Z,20.15
2023-08-12T19:34:35.961Z,20.00
2023-08-12T19:39:40.432Z,19.84
2023-08-12T19:44:44.224Z,19.68
2023-08-12T19:49:47.306Z,19.60
2023-08-12T19:54:51.760Z,19.50
2023-08-12T19:59:54.938Z,19.47
2023-08-12T20:04:59.925Z,19.45
2023-08-12T20:10:04.549Z,19.40
2023-08-12T20:15:08.637Z,19.27
2023-08-12T20:20:13.885Z,19.16
2023-08-12T20:25:18.338Z,19.09
2023-08-12T20:30:21.881Z,19.06
2023-08-12T20:35:24.989Z,18.97
2023-08-12T20:40:29.460Z,18.95
2023-08-12T20:45:32.880Z,18.91
2023-08-12T20:50:36.380Z,18.93
2023-08-12T20:55:40.824Z,18.98
2023-08-12T21:00:44.012Z,18.92
2023-08-12T21:05:51.113Z,18.87
2023-08-12T21:10:56.406Z,18.79
2023-08-12T21:15:59.553Z,18.74
2023-08-12T21:21:03.562Z,18.70
2023-08-12T21:26:08.082Z,18.66
2023-08-12T21:31:13.108Z,18.59
2023-08-12T21:36:16.317Z,18.52
2023-08-12T21:41:21.049Z,18.51
2023-08-12T21:46:24.629Z,18.51
2023-08-12T21:51:27.823Z,18.46
2023-08-12T21:56:32.241Z,18.41
2023-08-12T22:01:35.833Z,18.36
2023-08-12T22:06:39.081Z,18.42
2023-08-12T22:11:43.623Z,18.42
2023-08-12T22:16:46.727Z,18.45
2023-08-12T22:21:49.860Z,18.54
2023-08-12T22:26:54.794Z,18.66
2023-08-12T22:31:57.982Z,18.76
2023-08-12T22:37:01.117Z,18.88
2023-08-12T22:42:05.791Z,18.96
2023-08-12T22:47:09.208Z,18.97
2023-08-12T22:52:12.936Z,19.00
2023-08-12T22:57:18.068Z,19.00
2023-08-12T23:02:21.540Z,18.99
2023-08-12T23:07:25.134Z,18.93
2023-08-12T23:12:30.029Z,18.92
2023-08-12T23:17:33.537Z,18.83
2023-08-12T23:22:37.006Z,18.82
2023-08-12T23:27:41.466Z,18.84
2023-08-12T23:32:45.497Z,18.88
2023-08-12T23:37:49.447Z,18.88
2023-08-12T23:42:53.931Z,18.84
2023-08-12T23:47:57.208Z,18.82
2023-08-12T23:53:00.801Z,18.81
2023-08-12T23:58:06.235Z,18.80
